sensor_id;sensor_type;location;lat;lon;timestamp;temperature;humidity
11505;DHT22;5809;53.262;10.408;2023-04-25T00:11:34;7.50;99.90
11505;DHT22;5809;53.262;10.408;2023-04-25T00:14:01;7.50;99.90
11505;DHT22;5809;53.262;10.408;2023-04-25T00:18:58;7.60;99.90
11505;DHT22;5809;53.262;10.408;2023-04-25T00:23:54;7.60;99.90
11505;DHT22;5809;53.262;10.408;2023-04-25T00:28:50;4.00;99.90
11505;DHT22;5809;53.262;10.408;2023-04-25T00:31:17;7.40;99.90
11505;DHT22;5809;53.262;10.408;2023-04-25T00:36:11;7.20;99.90
11505;DHT22;5809;53.262;10.408;2023-04-25T00:38:38;7.20;99.90
11505;DHT22;5809;53.262;10.408;2023-04-25T00:41:07;7.10;99.90
11505;DHT22;5809;53.262;10.408;2023-04-25T00:46:02;7.10;99.90
11505;DHT22;5809;53.262;10.408;2023-04-25T00:48:29;7.10;99.90
11505;DHT22;5809;53.262;10.408;2023-04-25T00:50:57;7.10;99.90
11505;DHT22;5809;53.262;10.408;2023-04-25T00:53:26;7.10;99.90
11505;DHT22;5809;53.262;10.408;2023-04-25T00:58:21;7.00;99.90
11505;DHT22;5809;53.262;10.408;2023-04-25T01:00:49;7.00;99.90
11505;DHT22;5809;53.262;10.408;2023-04-25T01:03:19;7.00;99.90
11505;DHT22;5809;53.262;10.408;2023-04-25T01:05:46;7.00;99.90
11505;DHT22;5809;53.262;10.408;2023-04-25T01:08:14;6.90;99.90
11505;DHT22;5809;53.262;10.408;2023-04-25T01:18:04;6.90;99.90
11505;DHT22;5809;53.262;10.408;2023-04-25T01:20:33;6.80;99.90
11505;DHT22;5809;53.262;10.408;2023-04-25T01:23:02;6.80;99.90
11505;DHT22;5809;53.262;10.408;2023-04-25T01:27:57;11.00;99.90
11505;DHT22;5809;53.262;10.408;2023-04-25T01:30:26;6.60;99.90
11505;DHT22;5809;53.262;10.408;2023-04-25T01:32:54;6.60;99.90
11505;DHT22;5809;53.262;10.408;2023-04-25T01:37:51;6.50;99.90
11505;DHT22;5809;53.262;10.408;2023-04-25T01:40:21;6.40;99.90
11505;DHT22;5809;53.262;10.408;2023-04-25T01:42:49;6.40;99.90
11505;DHT22;5809;53.262;10.408;2023-04-25T01:45:16;6.40;99.90
11505;DHT22;5809;53.262;10.408;2023-04-25T01:47:44;6.40;99.90
11505;DHT22;5809;53.262;10.408;2023-04-25T01:55:09;6.20;99.90
11505;DHT22;5809;53.262;10.408;2023-04-25T01:57:37;6.20;99.90
11505;DHT22;5809;53.262;10.408;2023-04-25T02:00:08;6.20;99.90
11505;DHT22;5809;53.262;10.408;2023-04-25T02:02:35;6.20;99.90
11505;DHT22;5809;53.262;10.408;2023-04-25T02:07:30;6.10;99.90
11505;DHT22;5809;53.262;10.408;2023-04-25T02:12:24;6.10;99.90
11505;DHT22;5809;53.262;10.408;2023-04-25T02:14:53;6.00;99.90
11505;DHT22;5809;53.262;10.408;2023-04-25T02:17:20;6.00;99.90
11505;DHT22;5809;53.262;10.408;2023-04-25T02:22:14;6.00;99.90
11505;DHT22;5809;53.262;10.408;2023-04-25T02:24:41;6.00;99.90
11505;DHT22;5809;53.262;10.408;2023-04-25T02:27:08;5.90;99.90
11505;DHT22;5809;53.262;10.408;2023-04-25T02:32:04;5.90;99.90
11505;DHT22;5809;53.262;10.408;2023-04-25T02:41:52;5.80;99.90
11505;DHT22;5809;53.262;10.408;2023-04-25T02:46:47;5.80;99.90
11505;DHT22;5809;53.262;10.408;2023-04-25T02:49:15;5.80;99.90
11505;DHT22;5809;53.262;10.408;2023-04-25T02:54:09;5.70;99.90
11505;DHT22;5809;53.262;10.408;2023-04-25T03:03:57;5.60;99.90
11505;DHT22;5809;53.262;10.408;2023-04-25T03:06:25;5.60;99.90
11505;DHT22;5809;53.262;10.408;2023-04-25T03:08:52;5.50;99.90
11505;DHT22;5809;53.262;10.408;2023-04-25T03:11:19;5.40;99.90
11505;DHT22;5809;53.262;10.408;2023-04-25T03:13:46;5.40;99.90
11505;DHT22;5809;53.262;10.408;2023-04-25T03:16:13;5.40;99.90
11505;DHT22;5809;53.262;10.408;2023-04-25T03:21:08;5.30;99.90
11505;DHT22;5809;53.262;10.408;2023-04-25T03:23:36;5.30;99.90
11505;DHT22;5809;53.262;10.408;2023-04-25T03:28:30;5.30;99.90
11505;DHT22;5809;53.262;10.408;2023-04-25T03:30:57;5.30;99.90
11505;DHT22;5809;53.262;10.408;2023-04-25T03:33:24;5.20;99.90
11505;DHT22;5809;53.262;10.408;2023-04-25T03:38:18;5.30;99.90
11505;DHT22;5809;53.262;10.408;2023-04-25T03:40:46;5.20;99.90
11505;DHT22;5809;53.262;10.408;2023-04-25T03:43:13;5.30;99.90
11505;DHT22;5809;53.262;10.408;2023-04-25T03:45:40;5.30;99.90
11505;DHT22;5809;53.262;10.408;2023-04-25T03:50:34;5.30;99.90
11505;DHT22;5809;53.262;10.408;2023-04-25T03:53:01;5.30;99.90
11505;DHT22;5809;53.262;10.408;2023-04-25T03:55:28;5.30;99.90
11505;DHT22;5809;53.262;10.408;2023-04-25T03:57:57;5.20;99.90
11505;DHT22;5809;53.262;10.408;2023-04-25T04:00:25;5.10;99.90
11505;DHT22;5809;53.262;10.408;2023-04-25T04:02:52;5.00;99.90
11505;DHT22;5809;53.262;10.408;2023-04-25T04:05:19;5.00;99.90
11505;DHT22;5809;53.262;10.408;2023-04-25T04:10:13;4.90;99.90
11505;DHT22;5809;53.262;10.408;2023-04-25T04:15:09;4.80;99.90
11505;DHT22;5809;53.262;10.408;2023-04-25T04:17:37;4.80;99.90
11505;DHT22;5809;53.262;10.408;2023-04-25T04:20:05;4.80;99.90
11505;DHT22;5809;53.262;10.408;2023-04-25T04:22:33;4.80;99.90
11505;DHT22;5809;53.262;10.408;2023-04-25T04:25:00;4.70;99.90
11505;DHT22;5809;53.262;10.408;2023-04-25T04:27:28;4.80;99.90
11505;DHT22;5809;53.262;10.408;2023-04-25T04:29:54;4.80;99.90
11505;DHT22;5809;53.262;10.408;2023-04-25T04:32:23;4.80;99.90
11505;DHT22;5809;53.262;10.408;2023-04-25T04:34:50;4.90;99.90
11505;DHT22;5809;53.262;10.408;2023-04-25T04:37:20;4.90;99.90
11505;DHT22;5809;53.262;10.408;2023-04-25T04:39:47;4.90;99.90
11505;DHT22;5809;53.262;10.408;2023-04-25T04:42:14;4.90;99.90
11505;DHT22;5809;53.262;10.408;2023-04-25T04:47:10;4.90;99.90
11505;DHT22;5809;53.262;10.408;2023-04-25T04:49:39;4.90;99.90
11505;DHT22;5809;53.262;10.408;2023-04-25T04:52:06;5.00;99.90
11505;DHT22;5809;53.262;10.408;2023-04-25T04:54:33;5.10;99.90
11505;DHT22;5809;53.262;10.408;2023-04-25T04:57:01;5.20;99.90
11505;DHT22;5809;53.262;10.408;2023-04-25T04:59:28;5.30;99.90
11505;DHT22;5809;53.262;10.408;2023-04-25T05:01:54;5.30;99.90
11505;DHT22;5809;53.262;10.408;2023-04-25T05:04:21;5.40;99.90
11505;DHT22;5809;53.262;10.408;2023-04-25T05:06:50;5.60;99.90
11505;DHT22;5809;53.262;10.408;2023-04-25T05:09:17;5.70;99.90
11505;DHT22;5809;53.262;10.408;2023-04-25T05:11:44;5.80;99.90
11505;DHT22;5809;53.262;10.408;2023-04-25T05:14:11;5.90;99.90
11505;DHT22;5809;53.262;10.408;2023-04-25T05:16:38;6.10;99.90
11505;DHT22;5809;53.262;10.408;2023-04-25T05:19:05;6.10;99.90
11505;DHT22;5809;53.262;10.408;2023-04-25T05:21:32;6.40;99.90
11505;DHT22;5809;53.262;10.408;2023-04-25T05:24:01;7.00;99.90
11505;DHT22;5809;53.262;10.408;2023-04-25T05:26:28;7.30;99.90
11505;DHT22;5809;53.262;10.408;2023-04-25T05:28:56;7.10;99.90
11505;DHT22;5809;53.262;10.408;2023-04-25T05:31:23;7.60;99.90
11505;DHT22;5809;53.262;10.408;2023-04-25T05:33:50;8.40;99.90
11505;DHT22;5809;53.262;10.408;2023-04-25T05:36:18;7.70;99.90
11505;DHT22;5809;53.262;10.408;2023-04-25T05:38:45;7.80;99.90
11505;DHT22;5809;53.262;10.408;2023-04-25T05:41:14;8.20;99.90
11505;DHT22;5809;53.262;10.408;2023-04-25T05:43:41;8.30;99.90
11505;DHT22;5809;53.262;10.408;2023-04-25T05:46:10;8.20;99.90
11505;DHT22;5809;53.262;10.408;2023-04-25T05:48:37;8.70;99.90
11505;DHT22;5809;53.262;10.408;2023-04-25T05:51:04;8.30;99.90
11505;DHT22;5809;53.262;10.408;2023-04-25T05:53:31;8.00;99.90
11505;DHT22;5809;53.262;10.408;2023-04-25T05:55:58;7.80;99.90
11505;DHT22;5809;53.262;10.408;2023-04-25T05:58:26;7.60;99.90
11505;DHT22;5809;53.262;10.408;2023-04-25T06:00:53;7.40;99.90
11505;DHT22;5809;53.262;10.408;2023-04-25T06:03:20;7.40;99.90
11505;DHT22;5809;53.262;10.408;2023-04-25T06:05:48;7.30;99.90
11505;DHT22;5809;53.262;10.408;2023-04-25T06:08:14;7.30;99.90
11505;DHT22;5809;53.262;10.408;2023-04-25T06:10:41;7.20;99.90
11505;DHT22;5809;53.262;10.408;2023-04-25T06:13:09;7.10;99.90
11505;DHT22;5809;53.262;10.408;2023-04-25T06:15:42;6.90;99.90
11505;DHT22;5809;53.262;10.408;2023-04-25T06:18:09;6.80;99.90
11505;DHT22;5809;53.262;10.408;2023-04-25T06:20:36;6.70;99.90
11505;DHT22;5809;53.262;10.408;2023-04-25T06:23:03;6.60;99.90
11505;DHT22;5809;53.262;10.408;2023-04-25T06:25:30;6.60;99.90
11505;DHT22;5809;53.262;10.408;2023-04-25T06:27:57;6.60;99.90
11505;DHT22;5809;53.262;10.408;2023-04-25T06:30:24;6.70;99.90
11505;DHT22;5809;53.262;10.408;2023-04-25T06:32:52;6.70;99.90
11505;DHT22;5809;53.262;10.408;2023-04-25T06:35:20;6.70;99.90
11505;DHT22;5809;53.262;10.408;2023-04-25T06:40:14;6.90;99.90
11505;DHT22;5809;53.262;10.408;2023-04-25T06:42:43;7.10;99.90
11505;DHT22;5809;53.262;10.408;2023-04-25T06:45:10;7.50;99.90
11505;DHT22;5809;53.262;10.408;2023-04-25T06:47:37;7.30;99.90
11505;DHT22;5809;53.262;10.408;2023-04-25T06:50:06;7.30;99.90
11505;DHT22;5809;53.262;10.408;2023-04-25T06:52:33;7.40;99.90
11505;DHT22;5809;53.262;10.408;2023-04-25T06:55:00;7.30;99.90
11505;DHT22;5809;53.262;10.408;2023-04-25T06:57:28;7.40;99.90
11505;DHT22;5809;53.262;10.408;2023-04-25T06:59:55;7.30;99.90
11505;DHT22;5809;53.262;10.408;2023-04-25T07:02:21;7.90;99.90
11505;DHT22;5809;53.262;10.408;2023-04-25T07:04:48;7.50;99.90
11505;DHT22;5809;53.262;10.408;2023-04-25T07:07:16;7.60;99.90
11505;DHT22;5809;53.262;10.408;2023-04-25T07:09:43;7.70;99.90
11505;DHT22;5809;53.262;10.408;2023-04-25T07:12:10;7.90;99.90
11505;DHT22;5809;53.262;10.408;2023-04-25T07:14:37;8.30;99.90
11505;DHT22;5809;53.262;10.408;2023-04-25T07:17:04;7.60;99.90
11505;DHT22;5809;53.262;10.408;2023-04-25T07:19:32;7.50;99.90
11505;DHT22;5809;53.262;10.408;2023-04-25T07:21:59;7.40;99.90
11505;DHT22;5809;53.262;10.408;2023-04-25T07:24:27;7.30;99.90
11505;DHT22;5809;53.262;10.408;2023-04-25T07:26:54;7.20;99.90
11505;DHT22;5809;53.262;10.408;2023-04-25T07:29:21;7.20;99.90
11505;DHT22;5809;53.262;10.408;2023-04-25T07:31:48;7.30;99.90
11505;DHT22;5809;53.262;10.408;2023-04-25T07:34:15;7.70;99.90
11505;DHT22;5809;53.262;10.408;2023-04-25T07:36:43;7.40;99.90
11505;DHT22;5809;53.262;10.408;2023-04-25T07:39:10;7.50;99.90
11505;DHT22;5809;53.262;10.408;2023-04-25T07:41:38;7.50;99.90
11505;DHT22;5809;53.262;10.408;2023-04-25T07:44:05;7.60;99.90
11505;DHT22;5809;53.262;10.408;2023-04-25T07:46:32;7.90;99.90
11505;DHT22;5809;53.262;10.408;2023-04-25T07:48:59;8.20;99.90
11505;DHT22;5809;53.262;10.408;2023-04-25T07:51:26;8.60;99.90
11505;DHT22;5809;53.262;10.408;2023-04-25T07:53:53;8.80;99.90
11505;DHT22;5809;53.262;10.408;2023-04-25T07:56:20;8.80;99.90
11505;DHT22;5809;53.262;10.408;2023-04-25T07:58:48;8.30;99.90
11505;DHT22;5809;53.262;10.408;2023-04-25T08:01:15;8.40;99.90
11505;DHT22;5809;53.262;10.408;2023-04-25T08:03:42;8.30;99.90
11505;DHT22;5809;53.262;10.408;2023-04-25T08:06:09;8.40;99.90
11505;DHT22;5809;53.262;10.408;2023-04-25T08:11:03;8.40;99.90
11505;DHT22;5809;53.262;10.408;2023-04-25T08:13:30;8.40;99.90
11505;DHT22;5809;53.262;10.408;2023-04-25T08:15:58;8.60;99.90
11505;DHT22;5809;53.262;10.408;2023-04-25T08:18:25;8.80;99.90
11505;DHT22;5809;53.262;10.408;2023-04-25T08:20:52;9.00;99.90
11505;DHT22;5809;53.262;10.408;2023-04-25T08:23:19;9.00;99.90
11505;DHT22;5809;53.262;10.408;2023-04-25T08:25:46;8.70;99.90
11505;DHT22;5809;53.262;10.408;2023-04-25T08:28:13;8.80;99.90
11505;DHT22;5809;53.262;10.408;2023-04-25T08:30:40;9.00;99.90
11505;DHT22;5809;53.262;10.408;2023-04-25T08:33:08;9.30;99.90
11505;DHT22;5809;53.262;10.408;2023-04-25T08:35:35;9.50;99.90
11505;DHT22;5809;53.262;10.408;2023-04-25T08:38:02;9.60;99.90
11505;DHT22;5809;53.262;10.408;2023-04-25T08:40:32;9.70;99.90
11505;DHT22;5809;53.262;10.408;2023-04-25T08:43:03;9.80;99.90
11505;DHT22;5809;53.262;10.408;2023-04-25T08:45:35;10.00;99.90
11505;DHT22;5809;53.262;10.408;2023-04-25T08:48:03;10.30;99.90
11505;DHT22;5809;53.262;10.408;2023-04-25T08:50:32;10.60;99.90
11505;DHT22;5809;53.262;10.408;2023-04-25T08:52:59;10.40;99.90
11505;DHT22;5809;53.262;10.408;2023-04-25T08:55:31;10.50;99.90
11505;DHT22;5809;53.262;10.408;2023-04-25T08:57:59;10.50;99.90
11505;DHT22;5809;53.262;10.408;2023-04-25T09:00:27;10.50;99.90
11505;DHT22;5809;53.262;10.408;2023-04-25T09:02:54;10.70;99.90
11505;DHT22;5809;53.262;10.408;2023-04-25T09:05:22;11.30;99.90
11505;DHT22;5809;53.262;10.408;2023-04-25T09:07:51;12.20;99.90
11505;DHT22;5809;53.262;10.408;2023-04-25T09:10:18;12.60;99.90
11505;DHT22;5809;53.262;10.408;2023-04-25T09:15:12;12.00;99.90
11505;DHT22;5809;53.262;10.408;2023-04-25T09:17:41;12.00;99.90
11505;DHT22;5809;53.262;10.408;2023-04-25T09:20:11;11.40;99.90
11505;DHT22;5809;53.262;10.408;2023-04-25T09:22:39;10.80;99.90
11505;DHT22;5809;53.262;10.408;2023-04-25T09:25:11;10.30;99.90
11505;DHT22;5809;53.262;10.408;2023-04-25T09:27:49;10.00;99.90
11505;DHT22;5809;53.262;10.408;2023-04-25T09:30:17;9.90;99.90
11505;DHT22;5809;53.262;10.408;2023-04-25T09:32:44;10.00;99.90
11505;DHT22;5809;53.262;10.408;2023-04-25T09:35:23;9.80;99.90
11505;DHT22;5809;53.262;10.408;2023-04-25T09:37:51;10.00;99.90
11505;DHT22;5809;53.262;10.408;2023-04-25T09:40:20;10.10;99.90
11505;DHT22;5809;53.262;10.408;2023-04-25T09:42:46;9.90;99.90
11505;DHT22;5809;53.262;10.408;2023-04-25T09:45:13;10.00;99.90
11505;DHT22;5809;53.262;10.408;2023-04-25T09:47:41;10.00;99.90
11505;DHT22;5809;53.262;10.408;2023-04-25T09:50:14;10.00;99.90
11505;DHT22;5809;53.262;10.408;2023-04-25T09:52:41;9.90;99.90
11505;DHT22;5809;53.262;10.408;2023-04-25T09:57:37;9.10;99.90
11505;DHT22;5809;53.262;10.408;2023-04-25T10:00:06;8.70;99.90
11505;DHT22;5809;53.262;10.408;2023-04-25T10:02:38;8.40;99.90
11505;DHT22;5809;53.262;10.408;2023-04-25T10:05:08;8.30;99.90
11505;DHT22;5809;53.262;10.408;2023-04-25T10:07:36;8.40;99.90
11505;DHT22;5809;53.262;10.408;2023-04-25T10:10:04;8.10;99.90
11505;DHT22;5809;53.262;10.408;2023-04-25T10:12:33;8.00;99.90
11505;DHT22;5809;53.262;10.408;2023-04-25T10:15:03;7.80;99.90
11505;DHT22;5809;53.262;10.408;2023-04-25T10:17:31;7.70;99.90
11505;DHT22;5809;53.262;10.408;2023-04-25T10:20:00;7.90;99.90
11505;DHT22;5809;53.262;10.408;2023-04-25T10:22:31;8.30;99.90
11505;DHT22;5809;53.262;10.408;2023-04-25T10:24:59;9.60;99.90
11505;DHT22;5809;53.262;10.408;2023-04-25T10:30:02;11.80;99.90
11505;DHT22;5809;53.262;10.408;2023-04-25T10:32:31;12.00;99.90
11505;DHT22;5809;53.262;10.408;2023-04-25T10:35:04;11.00;99.90
11505;DHT22;5809;53.262;10.408;2023-04-25T10:40:08;9.80;99.90
11505;DHT22;5809;53.262;10.408;2023-04-25T10:45:06;9.60;99.90
11505;DHT22;5809;53.262;10.408;2023-04-25T10:47:43;9.90;99.90
11505;DHT22;5809;53.262;10.408;2023-04-25T10:50:11;10.80;99.90
11505;DHT22;5809;53.262;10.408;2023-04-25T10:55:08;12.30;99.90
11505;DHT22;5809;53.262;10.408;2023-04-25T10:57:40;12.30;99.90
11505;DHT22;5809;53.262;10.408;2023-04-25T11:00:13;14.40;99.90
11505;DHT22;5809;53.262;10.408;2023-04-25T11:02:42;14.40;99.90
11505;DHT22;5809;53.262;10.408;2023-04-25T11:05:10;14.10;99.90
11505;DHT22;5809;53.262;10.408;2023-04-25T11:07:49;14.10;99.90
11505;DHT22;5809;53.262;10.408;2023-04-25T11:10:17;14.80;99.90
11505;DHT22;5809;53.262;10.408;2023-04-25T11:12:45;15.50;99.90
11505;DHT22;5809;53.262;10.408;2023-04-25T11:15:13;16.10;99.90
11505;DHT22;5809;53.262;10.408;2023-04-25T11:17:40;16.40;99.90
11505;DHT22;5809;53.262;10.408;2023-04-25T11:20:09;15.90;99.90
11505;DHT22;5809;53.262;10.408;2023-04-25T11:22:38;15.60;99.90
11505;DHT22;5809;53.262;10.408;2023-04-25T11:25:07;15.40;99.90
11505;DHT22;5809;53.262;10.408;2023-04-25T11:27:34;14.90;99.90
11505;DHT22;5809;53.262;10.408;2023-04-25T11:30:11;13.00;99.90
11505;DHT22;5809;53.262;10.408;2023-04-25T11:32:40;12.10;99.90
11505;DHT22;5809;53.262;10.408;2023-04-25T11:35:08;11.30;99.90
11505;DHT22;5809;53.262;10.408;2023-04-25T11:37:35;10.80;99.90
11505;DHT22;5809;53.262;10.408;2023-04-25T11:40:04;10.30;99.90
11505;DHT22;5809;53.262;10.408;2023-04-25T11:44:59;9.40;99.90
11505;DHT22;5809;53.262;10.408;2023-04-25T11:47:30;9.50;99.90
11505;DHT22;5809;53.262;10.408;2023-04-25T11:49:59;9.90;99.90
11505;DHT22;5809;53.262;10.408;2023-04-25T11:52:36;10.60;99.90
11505;DHT22;5809;53.262;10.408;2023-04-25T11:55:05;10.90;99.90
11505;DHT22;5809;53.262;10.408;2023-04-25T11:57:33;8.70;99.90
11505;DHT22;5809;53.262;10.408;2023-04-25T12:00:06;10.40;99.90
11505;DHT22;5809;53.262;10.408;2023-04-25T12:02:35;10.20;99.90
11505;DHT22;5809;53.262;10.408;2023-04-25T12:05:06;10.10;99.90
11505;DHT22;5809;53.262;10.408;2023-04-25T12:07:33;10.60;99.90
11505;DHT22;5809;53.262;10.408;2023-04-25T12:10:04;11.00;99.90
11505;DHT22;5809;53.262;10.408;2023-04-25T12:12:32;11.60;99.90
11505;DHT22;5809;53.262;10.408;2023-04-25T12:15:08;12.00;99.90
11505;DHT22;5809;53.262;10.408;2023-04-25T12:17:36;12.50;99.90
11505;DHT22;5809;53.262;10.408;2023-04-25T12:20:09;13.20;99.90
11505;DHT22;5809;53.262;10.408;2023-04-25T12:22:36;10.30;99.90
11505;DHT22;5809;53.262;10.408;2023-04-25T12:25:03;14.40;99.90
11505;DHT22;5809;53.262;10.408;2023-04-25T12:27:31;15.40;99.90
11505;DHT22;5809;53.262;10.408;2023-04-25T12:29:59;16.80;99.90
11505;DHT22;5809;53.262;10.408;2023-04-25T12:32:26;16.80;99.90
11505;DHT22;5809;53.262;10.408;2023-04-25T12:34:53;16.30;99.90
11505;DHT22;5809;53.262;10.408;2023-04-25T12:37:21;16.10;99.90
11505;DHT22;5809;53.262;10.408;2023-04-25T12:39:48;14.90;99.90
11505;DHT22;5809;53.262;10.408;2023-04-25T12:42:15;14.50;99.90
11505;DHT22;5809;53.262;10.408;2023-04-25T12:44:42;14.50;99.90
11505;DHT22;5809;53.262;10.408;2023-04-25T12:47:09;14.00;99.90
11505;DHT22;5809;53.262;10.408;2023-04-25T12:49:35;13.50;99.90
11505;DHT22;5809;53.262;10.408;2023-04-25T12:52:02;13.10;99.90
11505;DHT22;5809;53.262;10.408;2023-04-25T12:54:31;12.60;99.90
11505;DHT22;5809;53.262;10.408;2023-04-25T12:56:57;11.90;99.90
11505;DHT22;5809;53.262;10.408;2023-04-25T12:59:24;10.50;99.90
11505;DHT22;5809;53.262;10.408;2023-04-25T13:01:51;9.90;99.90
11505;DHT22;5809;53.262;10.408;2023-04-25T13:04:18;9.40;99.90
11505;DHT22;5809;53.262;10.408;2023-04-25T13:06:46;9.30;99.90
11505;DHT22;5809;53.262;10.408;2023-04-25T13:09:13;10.30;99.90
11505;DHT22;5809;53.262;10.408;2023-04-25T13:11:42;12.50;99.90
11505;DHT22;5809;53.262;10.408;2023-04-25T13:14:09;14.30;99.90
11505;DHT22;5809;53.262;10.408;2023-04-25T13:16:36;15.10;99.90
11505;DHT22;5809;53.262;10.408;2023-04-25T13:19:03;15.20;99.90
11505;DHT22;5809;53.262;10.408;2023-04-25T13:21:31;13.30;99.90
11505;DHT22;5809;53.262;10.408;2023-04-25T13:26:25;10.50;99.90
11505;DHT22;5809;53.262;10.408;2023-04-25T13:28:54;9.90;99.90
11505;DHT22;5809;53.262;10.408;2023-04-25T13:31:20;9.70;99.90
11505;DHT22;5809;53.262;10.408;2023-04-25T13:33:47;9.80;99.90
11505;DHT22;5809;53.262;10.408;2023-04-25T13:36:14;10.00;99.90
11505;DHT22;5809;53.262;10.408;2023-04-25T13:38:41;10.10;99.90
11505;DHT22;5809;53.262;10.408;2023-04-25T13:41:09;10.50;99.90
11505;DHT22;5809;53.262;10.408;2023-04-25T13:43:36;11.50;99.90
11505;DHT22;5809;53.262;10.408;2023-04-25T13:46:04;12.80;99.90
11505;DHT22;5809;53.262;10.408;2023-04-25T13:48:32;12.70;99.90
11505;DHT22;5809;53.262;10.408;2023-04-25T13:53:26;13.90;99.90
11505;DHT22;5809;53.262;10.408;2023-04-25T13:55:53;14.40;99.90
11505;DHT22;5809;53.262;10.408;2023-04-25T13:58:20;14.70;99.90
11505;DHT22;5809;53.262;10.408;2023-04-25T14:00:46;14.70;99.90
11505;DHT22;5809;53.262;10.408;2023-04-25T14:03:15;14.50;99.90
11505;DHT22;5809;53.262;10.408;2023-04-25T14:05:41;16.10;99.90
11505;DHT22;5809;53.262;10.408;2023-04-25T14:08:09;17.40;99.90
11505;DHT22;5809;53.262;10.408;2023-04-25T14:10:36;17.90;99.90
11505;DHT22;5809;53.262;10.408;2023-04-25T14:13:03;18.60;99.90
11505;DHT22;5809;53.262;10.408;2023-04-25T14:15:31;18.70;99.90
11505;DHT22;5809;53.262;10.408;2023-04-25T14:17:58;17.80;99.90
11505;DHT22;5809;53.262;10.408;2023-04-25T14:20:27;14.40;99.90
11505;DHT22;5809;53.262;10.408;2023-04-25T14:22:54;13.00;99.90
11505;DHT22;5809;53.262;10.408;2023-04-25T14:25:23;12.00;99.90
11505;DHT22;5809;53.262;10.408;2023-04-25T14:27:50;10.90;99.90
11505;DHT22;5809;53.262;10.408;2023-04-25T14:30:17;9.90;99.90
11505;DHT22;5809;53.262;10.408;2023-04-25T14:35:12;9.00;99.90
11505;DHT22;5809;53.262;10.408;2023-04-25T14:37:40;9.10;99.90
11505;DHT22;5809;53.262;10.408;2023-04-25T14:40:08;10.50;99.90
11505;DHT22;5809;53.262;10.408;2023-04-25T14:42:36;11.00;99.90
11505;DHT22;5809;53.262;10.408;2023-04-25T14:45:03;10.60;99.90
11505;DHT22;5809;53.262;10.408;2023-04-25T14:49:58;9.70;99.90
11505;DHT22;5809;53.262;10.408;2023-04-25T14:54:53;9.60;99.90
11505;DHT22;5809;53.262;10.408;2023-04-25T14:57:20;9.60;99.90
11505;DHT22;5809;53.262;10.408;2023-04-25T15:02:14;11.30;99.90
11505;DHT22;5809;53.262;10.408;2023-04-25T15:04:41;11.90;99.90
11505;DHT22;5809;53.262;10.408;2023-04-25T15:09:35;11.30;99.90
11505;DHT22;5809;53.262;10.408;2023-04-25T15:12:04;10.90;99.90
11505;DHT22;5809;53.262;10.408;2023-04-25T15:14:31;10.70;99.90
11505;DHT22;5809;53.262;10.408;2023-04-25T15:16:59;10.80;99.90
11505;DHT22;5809;53.262;10.408;2023-04-25T15:19:26;10.80;99.90
11505;DHT22;5809;53.262;10.408;2023-04-25T15:24:20;10.30;99.90
11505;DHT22;5809;53.262;10.408;2023-04-25T15:26:47;10.30;99.90
11505;DHT22;5809;53.262;10.408;2023-04-25T15:29:16;10.20;99.90
11505;DHT22;5809;53.262;10.408;2023-04-25T15:31:43;10.20;99.90
11505;DHT22;5809;53.262;10.408;2023-04-25T15:36:37;9.90;99.90
11505;DHT22;5809;53.262;10.408;2023-04-25T15:39:04;9.80;99.90
11505;DHT22;5809;53.262;10.408;2023-04-25T15:41:32;9.50;99.90
11505;DHT22;5809;53.262;10.408;2023-04-25T15:43:59;9.10;99.90
11505;DHT22;5809;53.262;10.408;2023-04-25T15:46:28;9.30;99.90
11505;DHT22;5809;53.262;10.408;2023-04-25T15:48:56;9.70;99.90
11505;DHT22;5809;53.262;10.408;2023-04-25T15:51:23;9.90;99.90
11505;DHT22;5809;53.262;10.408;2023-04-25T15:56:17;9.80;99.90
11505;DHT22;5809;53.262;10.408;2023-04-25T15:58:44;9.90;99.90
11505;DHT22;5809;53.262;10.408;2023-04-25T16:01:11;9.90;99.90
11505;DHT22;5809;53.262;10.408;2023-04-25T16:03:39;9.80;99.90
11505;DHT22;5809;53.262;10.408;2023-04-25T16:06:06;9.80;99.90
11505;DHT22;5809;53.262;10.408;2023-04-25T16:08:33;10.00;99.90
11505;DHT22;5809;53.262;10.408;2023-04-25T16:11:01;10.30;99.90
11505;DHT22;5809;53.262;10.408;2023-04-25T16:13:28;10.30;99.90
11505;DHT22;5809;53.262;10.408;2023-04-25T16:18:22;10.00;99.90
11505;DHT22;5809;53.262;10.408;2023-04-25T16:20:50;9.70;99.90
11505;DHT22;5809;53.262;10.408;2023-04-25T16:23:17;9.60;99.90
11505;DHT22;5809;53.262;10.408;2023-04-25T16:25:44;9.40;99.90
11505;DHT22;5809;53.262;10.408;2023-04-25T16:28:12;9.20;99.90
11505;DHT22;5809;53.262;10.408;2023-04-25T16:30:39;9.00;99.90
11505;DHT22;5809;53.262;10.408;2023-04-25T16:35:33;8.80;99.90
11505;DHT22;5809;53.262;10.408;2023-04-25T16:38:01;8.60;99.90
11505;DHT22;5809;53.262;10.408;2023-04-25T16:45:22;8.20;99.90
11505;DHT22;5809;53.262;10.408;2023-04-25T16:47:50;7.90;99.90
11505;DHT22;5809;53.262;10.408;2023-04-25T16:50:17;7.30;99.90
11505;DHT22;5809;53.262;10.408;2023-04-25T16:55:13;7.20;99.90
11505;DHT22;5809;53.262;10.408;2023-04-25T17:00:08;7.60;99.90
11505;DHT22;5809;53.262;10.408;2023-04-25T17:02:35;7.90;99.90
11505;DHT22;5809;53.262;10.408;2023-04-25T17:07:29;8.20;99.90
11505;DHT22;5809;53.262;10.408;2023-04-25T17:12:25;8.20;99.90
11505;DHT22;5809;53.262;10.408;2023-04-25T17:17:19;7.90;99.90
11505;DHT22;5809;53.262;10.408;2023-04-25T17:22:13;7.50;99.90
11505;DHT22;5809;53.262;10.408;2023-04-25T17:29:36;7.30;99.90
11505;DHT22;5809;53.262;10.408;2023-04-25T17:32:03;7.40;99.90
11505;DHT22;5809;53.262;10.408;2023-04-25T17:34:33;7.30;99.90
11505;DHT22;5809;53.262;10.408;2023-04-25T17:37:02;7.20;99.90
11505;DHT22;5809;53.262;10.408;2023-04-25T17:41:56;7.00;99.90
11505;DHT22;5809;53.262;10.408;2023-04-25T17:44:23;6.90;99.90
11505;DHT22;5809;53.262;10.408;2023-04-25T17:46:52;6.90;99.90
11505;DHT22;5809;53.262;10.408;2023-04-25T17:49:19;6.90;99.90
11505;DHT22;5809;53.262;10.408;2023-04-25T17:54:13;6.90;99.90
11505;DHT22;5809;53.262;10.408;2023-04-25T18:04:04;6.70;99.90
11505;DHT22;5809;53.262;10.408;2023-04-25T18:06:31;6.70;99.90
11505;DHT22;5809;53.262;10.408;2023-04-25T18:11:27;6.50;99.90
11505;DHT22;5809;53.262;10.408;2023-04-25T18:21:19;6.30;99.90
11505;DHT22;5809;53.262;10.408;2023-04-25T18:23:46;6.30;99.90
11505;DHT22;5809;53.262;10.408;2023-04-25T18:26:13;6.30;99.90
11505;DHT22;5809;53.262;10.408;2023-04-25T18:31:07;6.20;99.90
11505;DHT22;5809;53.262;10.408;2023-04-25T18:33:36;6.10;99.90
11505;DHT22;5809;53.262;10.408;2023-04-25T18:36:03;6.10;99.90
11505;DHT22;5809;53.262;10.408;2023-04-25T18:38:31;6.10;99.90
11505;DHT22;5809;53.262;10.408;2023-04-25T18:40:58;6.00;99.90
11505;DHT22;5809;53.262;10.408;2023-04-25T18:43:25;6.10;99.90
11505;DHT22;5809;53.262;10.408;2023-04-25T18:45:52;6.00;99.90
11505;DHT22;5809;53.262;10.408;2023-04-25T18:50:46;6.10;99.90
11505;DHT22;5809;53.262;10.408;2023-04-25T18:58:08;5.80;99.90
11505;DHT22;5809;53.262;10.408;2023-04-25T19:00:36;5.70;99.90
11505;DHT22;5809;53.262;10.408;2023-04-25T19:07:58;5.30;99.90